Terminal Aerodrome Forecast
Issued by NWS Blacksburg, VA

Home | Current Version | Previous Version | Text Only | Print | Product List | Glossary On
Versions: 1 2 3 4 5 6 7 8 9 10 11 12 13 14 15 16 17 18 19 20 21 22 23 24 25 26 27 28 29 30 31 32 33 34 35 36 37 38 39 40 41 42 43 44 45 46 47 48
000
FTUS41 KRNK 192341
TAFLYH
TAF
KLYH 192341Z 2000/2024 VRB03KT P6SM BKN150 OVC250
     FM200700 10004KT P6SM BKN080 OVC150
     FM200900 09005KT P6SM -RA OVC070
     FM201100 10006KT 4SM -RA BR OVC025
      TEMPO 2013/2016 1SM RA BR OVC015
     FM201800 00000KT 4SM -RADZ BR OVC007=

USA.gov is the U.S. government's official web portal to all federal, state and local government web resources and services.